sensor_id;sensor_type;location;lat;lon;timestamp;pressure;altitude;pressure_sealevel;temperature;humidity
19576;BME280;41589;51.196;7.074;2023-04-08T00:00:53;99460.53;;;9.25;100.00
19576;BME280;41589;51.196;7.074;2023-04-08T00:05:53;99457.06;;;9.34;100.00
19576;BME280;41589;51.196;7.074;2023-04-08T00:10:54;99462.91;;;9.27;100.00
19576;BME280;41589;51.196;7.074;2023-04-08T00:15:54;99469.50;;;9.20;100.00
19576;BME280;41589;51.196;7.074;2023-04-08T00:20:55;99467.75;;;9.26;100.00
19576;BME280;41589;51.196;7.074;2023-04-08T00:25:56;99464.16;;;9.39;100.00
19576;BME280;41589;51.196;7.074;2023-04-08T00:30:56;99465.16;;;9.45;100.00
19576;BME280;41589;51.196;7.074;2023-04-08T00:35:57;99466.84;;;9.42;100.00
19576;BME280;41589;51.196;7.074;2023-04-08T00:40:57;99478.06;;;9.30;100.00
19576;BME280;41589;51.196;7.074;2023-04-08T00:45:58;99477.88;;;9.37;100.00
19576;BME280;41589;51.196;7.074;2023-04-08T00:50:58;99486.22;;;9.53;100.00
19576;BME280;41589;51.196;7.074;2023-04-08T00:55:58;99480.13;;;9.54;100.00
19576;BME280;41589;51.196;7.074;2023-04-08T01:01:12;99485.56;;;9.62;100.00
19576;BME280;41589;51.196;7.074;2023-04-08T01:06:34;99482.53;;;9.69;100.00
19576;BME280;41589;51.196;7.074;2023-04-08T01:11:41;99482.75;;;9.62;100.00
19576;BME280;41589;51.196;7.074;2023-04-08T01:16:42;99483.53;;;9.62;100.00
19576;BME280;41589;51.196;7.074;2023-04-08T01:21:45;99486.59;;;9.68;100.00
19576;BME280;41589;51.196;7.074;2023-04-08T01:26:46;99487.84;;;9.79;100.00
19576;BME280;41589;51.196;7.074;2023-04-08T01:36:56;99493.53;;;9.76;100.00
19576;BME280;41589;51.196;7.074;2023-04-08T01:41:58;99490.84;;;9.72;100.00
19576;BME280;41589;51.196;7.074;2023-04-08T01:46:58;99494.53;;;9.56;100.00
19576;BME280;41589;51.196;7.074;2023-04-08T01:52:00;99495.03;;;9.68;100.00
19576;BME280;41589;51.196;7.074;2023-04-08T01:57:04;99490.09;;;9.84;100.00
19576;BME280;41589;51.196;7.074;2023-04-08T02:02:08;99499.56;;;9.91;100.00
19576;BME280;41589;51.196;7.074;2023-04-08T02:07:10;99497.97;;;9.90;100.00
19576;BME280;41589;51.196;7.074;2023-04-08T02:12:11;99495.91;;;9.77;100.00
19576;BME280;41589;51.196;7.074;2023-04-08T02:17:28;99495.69;;;9.72;100.00
19576;BME280;41589;51.196;7.074;2023-04-08T02:27:39;99498.88;;;9.87;100.00
19576;BME280;41589;51.196;7.074;2023-04-08T02:32:44;99487.84;;;9.79;100.00
19576;BME280;41589;51.196;7.074;2023-04-08T02:37:45;99495.25;;;9.86;100.00
19576;BME280;41589;51.196;7.074;2023-04-08T02:42:47;99502.13;;;9.85;100.00
19576;BME280;41589;51.196;7.074;2023-04-08T02:47:48;99508.97;;;9.71;100.00
19576;BME280;41589;51.196;7.074;2023-04-08T02:52:48;99497.69;;;9.59;100.00
19576;BME280;41589;51.196;7.074;2023-04-08T02:57:49;99508.03;;;9.49;100.00
19576;BME280;41589;51.196;7.074;2023-04-08T03:02:49;99507.88;;;9.40;100.00
19576;BME280;41589;51.196;7.074;2023-04-08T03:07:49;99516.84;;;9.35;100.00
19576;BME280;41589;51.196;7.074;2023-04-08T03:12:50;99511.78;;;9.30;100.00
19576;BME280;41589;51.196;7.074;2023-04-08T03:17:50;99511.91;;;9.26;100.00
19576;BME280;41589;51.196;7.074;2023-04-08T03:22:50;99511.03;;;9.13;100.00
19576;BME280;41589;51.196;7.074;2023-04-08T03:27:51;99515.19;;;9.08;100.00
19576;BME280;41589;51.196;7.074;2023-04-08T03:32:51;99522.00;;;8.94;100.00
19576;BME280;41589;51.196;7.074;2023-04-08T03:42:55;99518.25;;;8.68;100.00
19576;BME280;41589;51.196;7.074;2023-04-08T03:47:56;99514.06;;;8.44;100.00
19576;BME280;41589;51.196;7.074;2023-04-08T03:52:56;99525.38;;;8.40;100.00
19576;BME280;41589;51.196;7.074;2023-04-08T03:57:56;99525.84;;;8.19;100.00
19576;BME280;41589;51.196;7.074;2023-04-08T04:02:57;99525.66;;;8.10;100.00
19576;BME280;41589;51.196;7.074;2023-04-08T04:07:57;99529.34;;;8.07;100.00
19576;BME280;41589;51.196;7.074;2023-04-08T04:12:57;99528.13;;;8.08;100.00
19576;BME280;41589;51.196;7.074;2023-04-08T04:17:58;99526.63;;;8.03;100.00
19576;BME280;41589;51.196;7.074;2023-04-08T04:22:58;99535.66;;;7.95;100.00
19576;BME280;41589;51.196;7.074;2023-04-08T04:27:58;99536.53;;;7.92;100.00
19576;BME280;41589;51.196;7.074;2023-04-08T04:32:59;99534.94;;;7.91;100.00
19576;BME280;41589;51.196;7.074;2023-04-08T04:37:59;99548.19;;;7.90;100.00
19576;BME280;41589;51.196;7.074;2023-04-08T04:43:00;99552.63;;;7.88;100.00
19576;BME280;41589;51.196;7.074;2023-04-08T04:48:01;99557.88;;;7.86;100.00
19576;BME280;41589;51.196;7.074;2023-04-08T04:53:02;99554.38;;;7.81;100.00
19576;BME280;41589;51.196;7.074;2023-04-08T04:58:02;99562.78;;;7.81;100.00
19576;BME280;41589;51.196;7.074;2023-04-08T05:03:03;99556.78;;;7.79;100.00
19576;BME280;41589;51.196;7.074;2023-04-08T05:08:03;99564.34;;;7.82;100.00
19576;BME280;41589;51.196;7.074;2023-04-08T05:13:04;99573.56;;;7.63;100.00
19576;BME280;41589;51.196;7.074;2023-04-08T05:18:04;99576.56;;;7.72;100.00
19576;BME280;41589;51.196;7.074;2023-04-08T05:23:05;99575.78;;;7.72;100.00
19576;BME280;41589;51.196;7.074;2023-04-08T05:28:06;99573.81;;;7.89;100.00
19576;BME280;41589;51.196;7.074;2023-04-08T05:33:06;99577.09;;;8.03;100.00
19576;BME280;41589;51.196;7.074;2023-04-08T05:38:07;99576.13;;;8.10;100.00
19576;BME280;41589;51.196;7.074;2023-04-08T05:43:07;99590.22;;;8.26;100.00
19576;BME280;41589;51.196;7.074;2023-04-08T05:48:07;99590.50;;;8.32;100.00
19576;BME280;41589;51.196;7.074;2023-04-08T05:53:08;99595.09;;;8.42;100.00
19576;BME280;41589;51.196;7.074;2023-04-08T05:58:09;99597.00;;;8.45;100.00
19576;BME280;41589;51.196;7.074;2023-04-08T06:03:09;99602.88;;;8.51;100.00
19576;BME280;41589;51.196;7.074;2023-04-08T06:08:10;99610.44;;;8.54;100.00
19576;BME280;41589;51.196;7.074;2023-04-08T06:13:10;99609.47;;;8.60;100.00
19576;BME280;41589;51.196;7.074;2023-04-08T06:18:10;99603.66;;;8.35;100.00
19576;BME280;41589;51.196;7.074;2023-04-08T06:23:11;99624.72;;;8.43;100.00
19576;BME280;41589;51.196;7.074;2023-04-08T06:28:12;99622.88;;;8.53;100.00
19576;BME280;41589;51.196;7.074;2023-04-08T06:33:12;99629.78;;;8.48;100.00
19576;BME280;41589;51.196;7.074;2023-04-08T06:38:12;99634.50;;;8.35;100.00
19576;BME280;41589;51.196;7.074;2023-04-08T06:43:13;99635.31;;;8.35;100.00
19576;BME280;41589;51.196;7.074;2023-04-08T06:48:14;99642.88;;;8.55;100.00
19576;BME280;41589;51.196;7.074;2023-04-08T06:53:15;99643.31;;;8.69;100.00
19576;BME280;41589;51.196;7.074;2023-04-08T06:58:15;99637.09;;;8.78;100.00
19576;BME280;41589;51.196;7.074;2023-04-08T07:03:16;99640.56;;;8.50;100.00
19576;BME280;41589;51.196;7.074;2023-04-08T07:08:16;99640.91;;;8.35;100.00
19576;BME280;41589;51.196;7.074;2023-04-08T07:13:16;99658.44;;;8.20;100.00
19576;BME280;41589;51.196;7.074;2023-04-08T07:18:17;99661.25;;;8.20;100.00
19576;BME280;41589;51.196;7.074;2023-04-08T07:23:17;99672.25;;;8.30;100.00
19576;BME280;41589;51.196;7.074;2023-04-08T07:28:18;99668.13;;;8.55;100.00
19576;BME280;41589;51.196;7.074;2023-04-08T07:33:19;99677.25;;;8.59;100.00
19576;BME280;41589;51.196;7.074;2023-04-08T07:38:19;99670.44;;;8.40;100.00
19576;BME280;41589;51.196;7.074;2023-04-08T07:43:19;99686.81;;;8.25;100.00
19576;BME280;41589;51.196;7.074;2023-04-08T07:48:20;99694.41;;;8.45;100.00
19576;BME280;41589;51.196;7.074;2023-04-08T07:53:20;99700.03;;;8.61;100.00
19576;BME280;41589;51.196;7.074;2023-04-08T07:58:21;99701.38;;;8.56;100.00
19576;BME280;41589;51.196;7.074;2023-04-08T08:03:23;99702.84;;;8.61;100.00
19576;BME280;41589;51.196;7.074;2023-04-08T08:08:23;99706.13;;;8.39;100.00
19576;BME280;41589;51.196;7.074;2023-04-08T08:13:23;99719.09;;;8.33;100.00
19576;BME280;41589;51.196;7.074;2023-04-08T08:18:24;99718.94;;;8.40;100.00
19576;BME280;41589;51.196;7.074;2023-04-08T08:23:24;99730.56;;;8.59;100.00
19576;BME280;41589;51.196;7.074;2023-04-08T08:28:24;99729.09;;;8.70;100.00
19576;BME280;41589;51.196;7.074;2023-04-08T08:33:27;99730.66;;;8.72;100.00
19576;BME280;41589;51.196;7.074;2023-04-08T08:38:28;99728.53;;;8.59;100.00
19576;BME280;41589;51.196;7.074;2023-04-08T08:43:28;99732.94;;;8.60;100.00
19576;BME280;41589;51.196;7.074;2023-04-08T08:48:30;99729.44;;;8.73;100.00
19576;BME280;41589;51.196;7.074;2023-04-08T08:53:31;99737.06;;;8.72;100.00
19576;BME280;41589;51.196;7.074;2023-04-08T08:58:31;99740.25;;;8.74;100.00
19576;BME280;41589;51.196;7.074;2023-04-08T09:03:32;99743.09;;;9.07;100.00
19576;BME280;41589;51.196;7.074;2023-04-08T09:08:34;99740.13;;;9.46;100.00
19576;BME280;41589;51.196;7.074;2023-04-08T09:13:38;99742.38;;;9.51;100.00
19576;BME280;41589;51.196;7.074;2023-04-08T09:19:06;99755.69;;;9.96;100.00
19576;BME280;41589;51.196;7.074;2023-04-08T09:24:29;99746.31;;;10.16;100.00
19576;BME280;41589;51.196;7.074;2023-04-08T09:29:35;99752.69;;;10.03;100.00
19576;BME280;41589;51.196;7.074;2023-04-08T09:34:39;99755.28;;;9.81;100.00
19576;BME280;41589;51.196;7.074;2023-04-08T09:39:40;99762.56;;;9.63;100.00
19576;BME280;41589;51.196;7.074;2023-04-08T09:44:40;99753.72;;;9.48;100.00
19576;BME280;41589;51.196;7.074;2023-04-08T09:49:49;99751.09;;;9.57;100.00
19576;BME280;41589;51.196;7.074;2023-04-08T09:54:55;99756.97;;;9.63;100.00
19576;BME280;41589;51.196;7.074;2023-04-08T10:00:16;99768.22;;;9.46;100.00
19576;BME280;41589;51.196;7.074;2023-04-08T10:05:17;99762.13;;;9.64;100.00
19576;BME280;41589;51.196;7.074;2023-04-08T10:10:18;99760.91;;;9.81;100.00
19576;BME280;41589;51.196;7.074;2023-04-08T10:15:27;99752.66;;;10.20;100.00
19576;BME280;41589;51.196;7.074;2023-04-08T10:25:38;99765.06;;;10.35;100.00
19576;BME280;41589;51.196;7.074;2023-04-08T10:30:41;99765.19;;;10.44;100.00
19576;BME280;41589;51.196;7.074;2023-04-08T10:35:45;99765.34;;;10.53;100.00
19576;BME280;41589;51.196;7.074;2023-04-08T10:40:47;99766.56;;;10.52;100.00
19576;BME280;41589;51.196;7.074;2023-04-08T10:45:48;99763.44;;;10.21;100.00
19576;BME280;41589;51.196;7.074;2023-04-08T10:50:55;99768.78;;;9.87;100.00
19576;BME280;41589;51.196;7.074;2023-04-08T10:56:09;99759.28;;;9.97;100.00
19576;BME280;41589;51.196;7.074;2023-04-08T11:01:14;99770.63;;;9.93;100.00
19576;BME280;41589;51.196;7.074;2023-04-08T11:06:15;99770.13;;;9.82;100.00
19576;BME280;41589;51.196;7.074;2023-04-08T11:11:18;99758.56;;;10.09;100.00
19576;BME280;41589;51.196;7.074;2023-04-08T11:16:19;99764.97;;;9.80;100.00
19576;BME280;41589;51.196;7.074;2023-04-08T11:21:22;99768.38;;;9.23;100.00
19576;BME280;41589;51.196;7.074;2023-04-08T11:26:24;99767.25;;;9.37;100.00
19576;BME280;41589;51.196;7.074;2023-04-08T11:31:26;99753.72;;;9.48;100.00
19576;BME280;41589;51.196;7.074;2023-04-08T11:36:27;99751.00;;;9.61;100.00
19576;BME280;41589;51.196;7.074;2023-04-08T11:41:38;99757.22;;;9.68;100.00
19576;BME280;41589;51.196;7.074;2023-04-08T11:46:39;99752.44;;;9.98;100.00
19576;BME280;41589;51.196;7.074;2023-04-08T11:51:57;99765.91;;;9.90;100.00
19576;BME280;41589;51.196;7.074;2023-04-08T11:56:58;99757.13;;;9.55;100.00
19576;BME280;41589;51.196;7.074;2023-04-08T12:01:59;99757.34;;;9.48;100.00
19576;BME280;41589;51.196;7.074;2023-04-08T12:07:01;99761.19;;;9.54;100.00
19576;BME280;41589;51.196;7.074;2023-04-08T12:12:02;99761.19;;;9.54;100.00
19576;BME280;41589;51.196;7.074;2023-04-08T12:17:03;99763.66;;;9.36;100.00
19576;BME280;41589;51.196;7.074;2023-04-08T12:22:04;99765.22;;;9.53;100.00
19576;BME280;41589;51.196;7.074;2023-04-08T12:27:05;99769.06;;;9.92;100.00
19576;BME280;41589;51.196;7.074;2023-04-08T12:32:06;99768.78;;;10.03;100.00
19576;BME280;41589;51.196;7.074;2023-04-08T12:37:06;99765.50;;;10.33;100.00
19576;BME280;41589;51.196;7.074;2023-04-08T12:42:07;99770.00;;;10.31;100.00
19576;BME280;41589;51.196;7.074;2023-04-08T12:47:07;99763.75;;;10.10;100.00
19576;BME280;41589;51.196;7.074;2023-04-08T12:52:11;99761.31;;;10.25;100.00
19576;BME280;41589;51.196;7.074;2023-04-08T12:57:12;99762.06;;;10.42;100.00
19576;BME280;41589;51.196;7.074;2023-04-08T13:02:13;99752.97;;;10.22;100.00
19576;BME280;41589;51.196;7.074;2023-04-08T13:07:13;99760.84;;;10.56;100.00
19576;BME280;41589;51.196;7.074;2023-04-08T13:12:13;99759.19;;;10.84;100.00
19576;BME280;41589;51.196;7.074;2023-04-08T13:17:15;99763.91;;;10.87;100.00
19576;BME280;41589;51.196;7.074;2023-04-08T13:22:15;99759.31;;;11.06;100.00
19576;BME280;41589;51.196;7.074;2023-04-08T13:27:16;99758.50;;;10.80;100.00
19576;BME280;41589;51.196;7.074;2023-04-08T13:32:16;99763.34;;;10.79;100.00
19576;BME280;41589;51.196;7.074;2023-04-08T13:37:17;99765.38;;;10.79;100.00
19576;BME280;41589;51.196;7.074;2023-04-08T13:42:20;99767.38;;;10.53;100.00
19576;BME280;41589;51.196;7.074;2023-04-08T13:47:21;99767.44;;;10.49;100.00
19576;BME280;41589;51.196;7.074;2023-04-08T13:52:24;99751.66;;;10.93;100.00
19576;BME280;41589;51.196;7.074;2023-04-08T13:57:25;99749.72;;;10.78;100.00
19576;BME280;41589;51.196;7.074;2023-04-08T14:02:25;99744.19;;;10.61;100.00
19576;BME280;41589;51.196;7.074;2023-04-08T14:07:26;99750.66;;;10.33;100.00
19576;BME280;41589;51.196;7.074;2023-04-08T14:12:26;99745.34;;;10.35;100.00
19576;BME280;41589;51.196;7.074;2023-04-08T14:17:27;99747.00;;;10.74;100.00
19576;BME280;41589;51.196;7.074;2023-04-08T14:22:27;99755.00;;;10.63;100.00
19576;BME280;41589;51.196;7.074;2023-04-08T14:27:30;99752.38;;;10.56;100.00
19576;BME280;41589;51.196;7.074;2023-04-08T14:32:31;99745.78;;;10.21;100.00
19576;BME280;41589;51.196;7.074;2023-04-08T14:37:35;99761.44;;;10.22;100.00
19576;BME280;41589;51.196;7.074;2023-04-08T14:42:37;99763.16;;;10.03;100.00
19576;BME280;41589;51.196;7.074;2023-04-08T14:47:37;99757.56;;;10.16;100.00
19576;BME280;41589;51.196;7.074;2023-04-08T14:52:38;99753.94;;;10.44;100.00
19576;BME280;41589;51.196;7.074;2023-04-08T14:57:38;99744.91;;;10.36;100.00
19576;BME280;41589;51.196;7.074;2023-04-08T15:02:38;99760.38;;;10.16;100.00
19576;BME280;41589;51.196;7.074;2023-04-08T15:07:39;99753.00;;;10.34;100.00
19576;BME280;41589;51.196;7.074;2023-04-08T15:12:39;99765.97;;;10.03;100.00
19576;BME280;41589;51.196;7.074;2023-04-08T15:17:40;99752.13;;;10.08;100.00
19576;BME280;41589;51.196;7.074;2023-04-08T15:22:40;99761.66;;;9.98;100.00
19576;BME280;41589;51.196;7.074;2023-04-08T15:27:40;99757.34;;;10.10;100.00
19576;BME280;41589;51.196;7.074;2023-04-08T15:32:42;99763.16;;;10.03;100.00
19576;BME280;41589;51.196;7.074;2023-04-08T15:37:42;99772.53;;;10.12;100.00
19576;BME280;41589;51.196;7.074;2023-04-08T15:42:43;99773.22;;;10.17;100.00
19576;BME280;41589;51.196;7.074;2023-04-08T15:47:43;99774.59;;;9.96;100.00
19576;BME280;41589;51.196;7.074;2023-04-08T15:52:44;99784.47;;;10.17;100.00
19576;BME280;41589;51.196;7.074;2023-04-08T15:57:44;99775.59;;;9.89;100.00
19576;BME280;41589;51.196;7.074;2023-04-08T16:02:45;99774.41;;;10.03;100.00
19576;BME280;41589;51.196;7.074;2023-04-08T16:07:45;99778.97;;;9.97;100.00
19576;BME280;41589;51.196;7.074;2023-04-08T16:12:46;99781.03;;;9.64;100.00
19576;BME280;41589;51.196;7.074;2023-04-08T16:17:51;99780.25;;;9.79;100.00
19576;BME280;41589;51.196;7.074;2023-04-08T16:22:52;99784.69;;;9.93;100.00
19576;BME280;41589;51.196;7.074;2023-04-08T16:27:52;99782.63;;;9.81;100.00
19576;BME280;41589;51.196;7.074;2023-04-08T16:32:52;99776.72;;;9.59;100.00
19576;BME280;41589;51.196;7.074;2023-04-08T16:37:53;99771.22;;;9.39;100.00
19576;BME280;41589;51.196;7.074;2023-04-08T16:42:54;99765.94;;;9.57;100.00
19576;BME280;41589;51.196;7.074;2023-04-08T16:47:55;99773.75;;;9.82;100.00
19576;BME280;41589;51.196;7.074;2023-04-08T16:52:55;99759.56;;;9.86;100.00
19576;BME280;41589;51.196;7.074;2023-04-08T16:57:56;99764.38;;;10.02;100.00
19576;BME280;41589;51.196;7.074;2023-04-08T17:02:57;99767.34;;;9.49;100.00
19576;BME280;41589;51.196;7.074;2023-04-08T17:07:58;99773.28;;;9.35;100.00
19576;BME280;41589;51.196;7.074;2023-04-08T17:12:58;99770.66;;;9.61;100.00
19576;BME280;41589;51.196;7.074;2023-04-08T17:17:58;99769.84;;;9.76;100.00
19576;BME280;41589;51.196;7.074;2023-04-08T17:22:59;99777.94;;;9.91;100.00
19576;BME280;41589;51.196;7.074;2023-04-08T17:27:59;99772.31;;;9.74;100.00
19576;BME280;41589;51.196;7.074;2023-04-08T17:33:00;99781.97;;;9.73;100.00
19576;BME280;41589;51.196;7.074;2023-04-08T17:38:01;99782.94;;;9.67;100.00
19576;BME280;41589;51.196;7.074;2023-04-08T17:43:02;99779.38;;;9.50;100.00
19576;BME280;41589;51.196;7.074;2023-04-08T17:48:02;99782.63;;;9.48;100.00
19576;BME280;41589;51.196;7.074;2023-04-08T17:53:04;99799.13;;;9.30;100.00
19576;BME280;41589;51.196;7.074;2023-04-08T17:58:05;99794.91;;;9.22;100.00
19576;BME280;41589;51.196;7.074;2023-04-08T18:03:05;99794.44;;;9.23;100.00
19576;BME280;41589;51.196;7.074;2023-04-08T18:08:06;99796.28;;;9.14;100.00
19576;BME280;41589;51.196;7.074;2023-04-08T18:13:06;99802.97;;;9.20;100.00
19576;BME280;41589;51.196;7.074;2023-04-08T18:18:06;99805.50;;;9.14;100.00
19576;BME280;41589;51.196;7.074;2023-04-08T18:23:07;99818.41;;;9.12;100.00
19576;BME280;41589;51.196;7.074;2023-04-08T18:28:07;99817.25;;;9.09;100.00
19576;BME280;41589;51.196;7.074;2023-04-08T18:33:08;99821.25;;;9.28;100.00
19576;BME280;41589;51.196;7.074;2023-04-08T18:38:08;99816.81;;;9.11;100.00
19576;BME280;41589;51.196;7.074;2023-04-08T18:43:09;99825.09;;;9.18;100.00
19576;BME280;41589;51.196;7.074;2023-04-08T18:48:11;99825.34;;;9.07;100.00
19576;BME280;41589;51.196;7.074;2023-04-08T18:53:11;99833.28;;;9.28;100.00
19576;BME280;41589;51.196;7.074;2023-04-08T18:58:12;99837.81;;;9.22;100.00
19576;BME280;41589;51.196;7.074;2023-04-08T19:03:12;99838.25;;;9.21;100.00
19576;BME280;41589;51.196;7.074;2023-04-08T19:08:13;99828.50;;;9.09;100.00
19576;BME280;41589;51.196;7.074;2023-04-08T19:13:13;99838.50;;;9.10;100.00
19576;BME280;41589;51.196;7.074;2023-04-08T19:18:14;99848.47;;;8.95;100.00
19576;BME280;41589;51.196;7.074;2023-04-08T19:23:14;99840.66;;;8.66;100.00
19576;BME280;41589;51.196;7.074;2023-04-08T19:28:15;99854.13;;;8.75;100.00
19576;BME280;41589;51.196;7.074;2023-04-08T19:33:16;99852.59;;;8.70;100.00
19576;BME280;41589;51.196;7.074;2023-04-08T19:38:16;99848.84;;;8.77;100.00
19576;BME280;41589;51.196;7.074;2023-04-08T19:43:17;99849.34;;;8.72;100.00
19576;BME280;41589;51.196;7.074;2023-04-08T19:48:17;99854.03;;;8.79;100.00
19576;BME280;41589;51.196;7.074;2023-04-08T19:53:20;99850.13;;;8.73;100.00
19576;BME280;41589;51.196;7.074;2023-04-08T19:58:20;99858.94;;;8.75;100.00
19576;BME280;41589;51.196;7.074;2023-04-08T20:03:21;99862.16;;;8.73;100.00
19576;BME280;41589;51.196;7.074;2023-04-08T20:08:22;99870.31;;;8.87;100.00
19576;BME280;41589;51.196;7.074;2023-04-08T20:13:22;99860.84;;;8.97;100.00
19576;BME280;41589;51.196;7.074;2023-04-08T20:18:23;99857.69;;;8.95;100.00
19576;BME280;41589;51.196;7.074;2023-04-08T20:23:24;99861.78;;;8.91;100.00
19576;BME280;41589;51.196;7.074;2023-04-08T20:28:25;99871.59;;;8.83;100.00
19576;BME280;41589;51.196;7.074;2023-04-08T20:33:26;99870.78;;;8.82;100.00
19576;BME280;41589;51.196;7.074;2023-04-08T20:38:26;99865.13;;;8.86;100.00
19576;BME280;41589;51.196;7.074;2023-04-08T20:43:27;99869.06;;;8.68;100.00
19576;BME280;41589;51.196;7.074;2023-04-08T20:48:28;99867.97;;;8.82;100.00
19576;BME280;41589;51.196;7.074;2023-04-08T20:53:28;99864.63;;;8.71;100.00
19576;BME280;41589;51.196;7.074;2023-04-08T20:58:29;99870.00;;;8.82;100.00
19576;BME280;41589;51.196;7.074;2023-04-08T21:03:30;99862.75;;;8.84;100.00
19576;BME280;41589;51.196;7.074;2023-04-08T21:08:31;99857.25;;;8.97;100.00
19576;BME280;41589;51.196;7.074;2023-04-08T21:13:32;99857.75;;;8.92;100.00
19576;BME280;41589;51.196;7.074;2023-04-08T21:18:38;99862.66;;;8.88;100.00
19576;BME280;41589;51.196;7.074;2023-04-08T21:23:39;99864.13;;;8.76;100.00
19576;BME280;41589;51.196;7.074;2023-04-08T21:28:40;99862.75;;;8.84;100.00
19576;BME280;41589;51.196;7.074;2023-04-08T21:33:40;99858.72;;;8.85;100.00
19576;BME280;41589;51.196;7.074;2023-04-08T21:38:44;99863.38;;;8.72;100.00
19576;BME280;41589;51.196;7.074;2023-04-08T21:43:44;99862.09;;;8.77;100.00
19576;BME280;41589;51.196;7.074;2023-04-08T21:48:44;99861.38;;;8.73;100.00
19576;BME280;41589;51.196;7.074;2023-04-08T21:53:45;99863.91;;;8.67;100.00
19576;BME280;41589;51.196;7.074;2023-04-08T21:58:45;99870.38;;;8.64;100.00
19576;BME280;41589;51.196;7.074;2023-04-08T22:03:46;99868.81;;;8.63;100.00
19576;BME280;41589;51.196;7.074;2023-04-08T22:08:47;99858.72;;;8.65;100.00
19576;BME280;41589;51.196;7.074;2023-04-08T22:13:49;99861.09;;;8.67;100.00
19576;BME280;41589;51.196;7.074;2023-04-08T22:18:50;99864.41;;;8.42;100.00
19576;BME280;41589;51.196;7.074;2023-04-08T22:23:50;99856.34;;;8.44;100.00
19576;BME280;41589;51.196;7.074;2023-04-08T22:28:51;99857.38;;;8.54;100.00
19576;BME280;41589;51.196;7.074;2023-04-08T22:33:52;99860.88;;;8.58;100.00
19576;BME280;41589;51.196;7.074;2023-04-08T22:38:55;99856.13;;;8.55;100.00
19576;BME280;41589;51.196;7.074;2023-04-08T22:43:56;99847.28;;;8.56;100.00
19576;BME280;41589;51.196;7.074;2023-04-08T22:48:56;99850.22;;;8.69;100.00
19576;BME280;41589;51.196;7.074;2023-04-08T22:53:57;99854.78;;;8.63;100.00
19576;BME280;41589;51.196;7.074;2023-04-08T22:58:58;99857.19;;;8.61;100.00
19576;BME280;41589;51.196;7.074;2023-04-08T23:03:59;99848.72;;;8.64;100.00
19576;BME280;41589;51.196;7.074;2023-04-08T23:09:00;99852.91;;;8.56;100.00
19576;BME280;41589;51.196;7.074;2023-04-08T23:14:06;99855.78;;;8.53;100.00
19576;BME280;41589;51.196;7.074;2023-04-08T23:19:07;99851.59;;;8.61;100.00
19576;BME280;41589;51.196;7.074;2023-04-08T23:24:08;99851.53;;;8.64;100.00
19576;BME280;41589;51.196;7.074;2023-04-08T23:29:08;99851.00;;;8.69;100.00
19576;BME280;41589;51.196;7.074;2023-04-08T23:34:10;99847.06;;;8.67;100.00
19576;BME280;41589;51.196;7.074;2023-04-08T23:39:13;99845.63;;;8.59;100.00
19576;BME280;41589;51.196;7.074;2023-04-08T23:44:16;99850.34;;;8.62;100.00
19576;BME280;41589;51.196;7.074;2023-04-08T23:49:16;99840.53;;;8.54;100.00
19576;BME280;41589;51.196;7.074;2023-04-08T23:54:17;99853.59;;;8.60;100.00
19576;BME280;41589;51.196;7.074;2023-04-08T23:59:21;99845.97;;;8.41;100.00
